Time;durP1;ratioP1;P1;durP2;ratioP2;P2;SDS_P1;SDS_P2;PMS_P1;PMS_P2;Temp;Humidity;BMP_temperature;BMP_pressure;BME280_temperature;BME280_humidity;BME280_pressure;Samples;Min_cycle;Max_cycle;Signal;HPM_P1;HPM_P2
2023/01/29 00:02:42;;;;;;;10.88;5.93;;;;;;;2.24;58.18;100255.88;5285396;28;20174;-73
2023/01/29 00:05:34;;;;;;;9.32;5.75;;;;;;;2.27;57.81;100268.00;5258047;28;20296;-73
2023/01/29 00:08:25;;;;;;;9.68;6.07;;;;;;;2.44;57.69;100283.03;5247090;28;20184;-73
2023/01/29 00:11:16;;;;;;;9.73;5.95;;;;;;;2.42;57.93;100277.88;5283939;28;20164;-72
2023/01/29 00:14:07;;;;;;;10.32;5.57;;;;;;;2.24;57.20;100255.88;5260057;28;20182;-73
2023/01/29 00:16:57;;;;;;;10.45;5.70;;;;;;;2.30;57.21;100278.34;5264615;28;20071;-73
2023/01/29 00:19:47;;;;;;;12.15;5.70;;;;;;;2.04;57.34;100277.56;5264170;28;20604;-73
2023/01/29 00:22:38;;;;;;;10.38;6.00;;;;;;;2.38;57.78;100278.88;5239425;28;20048;-73
2023/01/29 00:25:28;;;;;;;8.07;5.57;;;;;;;2.33;57.58;100280.84;5254297;28;20048;-73
2023/01/29 00:28:19;;;;;;;11.02;6.22;;;;;;;2.27;57.33;100284.53;5263947;28;20058;-73
2023/01/29 00:31:15;;;;;;;14.73;6.20;;;;;;;2.19;57.73;100289.22;5262066;28;20058;-73
2023/01/29 00:34:06;;;;;;;9.93;5.85;;;;;;;2.20;57.57;100262.16;5261704;28;20050;-73
2023/01/29 00:37:03;;;;;;;8.60;5.50;;;;;;;2.27;57.66;100270.59;5256142;28;20044;-74
2023/01/29 00:39:53;;;;;;;11.35;6.18;;;;;;;2.08;57.40;100255.63;5253041;28;20433;-74
2023/01/29 00:45:52;;;;;;;9.73;6.05;;;;;;;2.12;58.06;100266.84;5264429;28;20055;-72
2023/01/29 00:48:43;;;;;;;9.57;5.85;;;;;;;2.18;58.08;100278.81;5263681;28;20048;-72
2023/01/29 00:51:35;;;;;;;9.88;5.30;;;;;;;2.22;58.57;100275.16;5255581;28;20416;-73
2023/01/29 00:54:25;;;;;;;11.73;6.55;;;;;;;2.17;58.95;100283.19;5265580;28;20055;-72
2023/01/29 00:57:15;;;;;;;11.48;6.57;;;;;;;2.23;58.76;100269.03;5279588;28;20412;-73
2023/01/29 01:00:11;;;;;;;12.50;6.05;;;;;;;2.31;58.24;100280.88;5260623;28;20109;-73
2023/01/29 01:03:04;;;;;;;11.23;6.70;;;;;;;2.24;58.62;100286.44;5285506;28;20528;-73
2023/01/29 01:06:05;;;;;;;7.05;4.30;;;;;;;2.25;58.48;100278.53;5289496;28;20558;-73
2023/01/29 01:12:05;;;;;;;13.93;6.80;;;;;;;2.07;57.30;100272.22;5258163;28;20518;-72
2023/01/29 01:14:55;;;;;;;11.55;6.47;;;;;;;2.00;58.53;100277.75;5255953;28;20158;-73
2023/01/29 01:17:47;;;;;;;10.10;6.10;;;;;;;2.21;58.57;100274.31;5242532;28;20052;-73
2023/01/29 01:20:38;;;;;;;11.05;6.22;;;;;;;2.18;58.22;100269.19;5262338;28;20091;-73
2023/01/29 01:23:29;;;;;;;12.13;6.63;;;;;;;2.03;58.63;100269.81;5248543;28;20134;-73
2023/01/29 01:26:19;;;;;;;15.00;6.88;;;;;;;1.91;59.06;100265.88;5267096;28;20069;-72
2023/01/29 01:29:09;;;;;;;11.68;6.40;;;;;;;1.88;59.23;100268.59;5280461;28;20141;-73
2023/01/29 01:32:00;;;;;;;12.05;6.32;;;;;;;1.94;58.48;100280.59;5272824;28;20062;-73
2023/01/29 01:34:52;;;;;;;13.32;6.35;;;;;;;1.72;58.30;100260.47;5288749;28;20062;-73
2023/01/29 01:37:42;;;;;;;12.00;6.15;;;;;;;1.78;58.36;100264.63;5288052;28;20047;-74
2023/01/29 01:40:32;;;;;;;11.82;6.18;;;;;;;1.79;58.84;100276.81;5276559;28;20489;-73
2023/01/29 01:43:22;;;;;;;13.23;6.80;;;;;;;1.97;58.98;100276.13;5245333;28;20047;-72
2023/01/29 01:46:13;;;;;;;11.10;6.38;;;;;;;2.04;59.41;100280.19;5271480;28;20054;-73
2023/01/29 01:49:14;;;;;;;12.27;6.75;;;;;;;1.96;59.03;100269.19;5258770;28;20047;-71
2023/01/29 01:52:05;;;;;;;13.68;7.05;;;;;;;1.89;58.99;100265.09;5287945;28;20556;-71
2023/01/29 01:54:56;;;;;;;12.75;6.75;;;;;;;1.88;58.81;100260.75;5287452;28;20056;-71
2023/01/29 01:57:51;;;;;;;14.23;6.85;;;;;;;1.91;58.71;100270.25;5261296;28;20149;-71
2023/01/29 02:00:41;;;;;;;17.33;6.93;;;;;;;1.90;59.08;100263.34;5271104;28;20109;-71
2023/01/29 02:10:03;;;;;;;12.25;5.88;;;;;;;1.87;58.03;100274.75;5287622;28;19962;-71
2023/01/29 02:12:53;;;;;;;13.13;6.45;;;;;;;1.90;58.46;100279.03;5274873;28;20390;-71
2023/01/29 02:15:47;;;;;;;16.42;6.95;;;;;;;1.82;58.65;100274.94;5270013;28;20532;-70
2023/01/29 02:18:38;;;;;;;9.85;6.10;;;;;;;1.84;57.94;100270.47;5287820;28;20442;-71
2023/01/29 02:22:00;;;;;;;15.82;5.95;;;;;;;1.71;58.62;100271.00;5271714;28;20063;-71
2023/01/29 02:25:10;;;;;;;11.30;6.00;;;;;;;1.49;58.07;100247.41;5277701;28;20524;-70
2023/01/29 02:28:22;;;;;;;12.13;6.13;;;;;;;1.73;59.17;100283.13;5272229;28;20069;-71
2023/01/29 02:31:15;;;;;;;11.38;6.22;;;;;;;1.74;59.49;100276.97;5238768;28;20055;-71
2023/01/29 02:34:27;;;;;;;10.63;6.28;;;;;;;1.82;59.14;100274.94;5231965;28;20056;-71
2023/01/29 02:37:26;;;;;;;11.60;6.13;;;;;;;1.83;59.22;100278.41;5255390;28;20071;-71
2023/01/29 02:40:19;;;;;;;11.48;6.68;;;;;;;1.72;58.70;100272.69;5253198;28;20141;-71
2023/01/29 02:43:26;;;;;;;12.82;6.80;;;;;;;1.54;58.18;100274.22;5265813;28;20536;-71
2023/01/29 02:46:27;;;;;;;11.85;6.57;;;;;;;1.73;58.96;100272.66;5271473;28;20203;-71
2023/01/29 02:49:34;;;;;;;11.82;6.45;;;;;;;1.74;58.33;100269.13;5271411;28;20062;-71
2023/01/29 02:52:49;;;;;;;13.57;7.18;;;;;;;1.66;58.28;100265.97;5271289;28;20157;-71
2023/01/29 02:55:53;;;;;;;16.83;7.07;;;;;;;1.42;59.38;100267.69;5253212;28;20106;-71
2023/01/29 02:58:53;;;;;;;15.95;6.47;;;;;;;1.28;58.77;100246.41;5257428;28;20133;-71
2023/01/29 03:01:49;;;;;;;14.80;7.18;;;;;;;1.56;58.19;100280.28;5269348;28;20067;-71
2023/01/29 03:04:45;;;;;;;12.32;6.43;;;;;;;1.45;58.77;100270.19;5271796;28;20567;-71
2023/01/29 03:07:41;;;;;;;12.60;6.68;;;;;;;1.57;59.08;100266.28;5271041;28;20181;-71
2023/01/29 03:10:39;;;;;;;11.20;6.15;;;;;;;1.40;59.36;100270.34;5269743;28;20425;-71
2023/01/29 03:13:56;;;;;;;13.05;6.88;;;;;;;1.49;58.84;100268.31;5257828;28;20104;-71
2023/01/29 03:16:52;;;;;;;11.30;6.80;;;;;;;1.43;59.64;100252.88;5271099;28;20050;-71
2023/01/29 03:19:45;;;;;;;15.02;6.90;;;;;;;1.53;59.37;100272.53;5271161;28;20134;-71
2023/01/29 03:22:49;;;;;;;14.98;7.20;;;;;;;1.44;59.71;100272.88;5270939;28;20059;-71
2023/01/29 03:32:06;;;;;;;15.15;6.97;;;;;;;1.34;59.94;100265.34;5249350;28;20410;-71
2023/01/29 03:35:02;;;;;;;10.93;6.35;;;;;;;1.49;59.62;100256.13;5271036;28;20070;-71
2023/01/29 03:37:55;;;;;;;13.45;7.43;;;;;;;1.46;59.80;100258.84;5265901;28;20105;-71
2023/01/29 03:40:57;;;;;;;10.63;6.32;;;;;;;1.57;59.85;100261.06;5257455;28;20048;-71
2023/01/29 03:44:17;;;;;;;11.77;5.95;;;;;;;1.49;59.73;100269.19;5253356;28;20059;-71
2023/01/29 03:47:26;;;;;;;12.55;6.38;;;;;;;1.48;59.53;100266.59;5249623;28;20513;-72
2023/01/29 03:50:33;;;;;;;12.30;6.45;;;;;;;1.53;59.26;100268.16;5249951;28;20063;-71
2023/01/29 03:53:42;;;;;;;11.52;6.40;;;;;;;1.41;60.21;100265.97;5250044;28;20126;-71
2023/01/29 03:57:17;;;;;;;14.70;6.63;;;;;;;1.35;60.46;100267.03;5258576;28;20188;-72
2023/01/29 04:00:20;;;;;;;12.30;6.25;;;;;;;1.53;59.70;100262.09;5226516;28;20671;-70
2023/01/29 04:03:33;;;;;;;11.35;6.53;;;;;;;1.36;59.46;100270.53;5236637;28;20548;-71
2023/01/29 04:06:31;;;;;;;12.70;6.63;;;;;;;1.36;60.11;100262.69;5234452;28;20054;-71
2023/01/29 04:09:45;;;;;;;13.13;6.00;;;;;;;1.51;59.37;100266.50;5239353;28;20078;-71
2023/01/29 04:12:47;;;;;;;12.75;6.80;;;;;;;1.26;58.97;100266.50;5271044;28;20190;-72
2023/01/29 04:15:48;;;;;;;11.40;6.55;;;;;;;1.26;59.77;100270.00;5246760;28;20419;-72
2023/01/29 04:18:43;;;;;;;13.40;6.95;;;;;;;1.39;59.44;100279.13;5253684;28;20040;-72
2023/01/29 04:21:36;;;;;;;12.88;6.53;;;;;;;1.33;59.41;100275.88;5248943;28;20807;-72
2023/01/29 04:24:26;;;;;;;12.98;6.70;;;;;;;1.18;59.58;100267.63;5248503;28;20169;-71
2023/01/29 04:27:32;;;;;;;14.18;6.30;;;;;;;1.20;59.94;100277.19;5256408;28;20174;-72
2023/01/29 04:30:49;;;;;;;16.45;6.93;;;;;;;1.20;59.49;100275.44;5248546;28;20521;-72
2023/01/29 04:34:04;;;;;;;11.30;6.70;;;;;;;1.25;59.20;100281.34;5249663;28;20095;-71
2023/01/29 04:37:08;;;;;;;13.98;7.05;;;;;;;1.08;59.73;100276.69;5264370;28;20324;-71
2023/01/29 04:40:07;;;;;;;14.50;7.38;;;;;;;1.33;60.06;100286.31;5247675;28;20047;-72
2023/01/29 04:43:11;;;;;;;11.82;6.45;;;;;;;1.32;60.10;100288.06;5277310;28;20217;-72
2023/01/29 04:46:16;;;;;;;12.48;6.63;;;;;;;1.37;59.93;100286.16;5269724;28;20054;-72
2023/01/29 04:49:28;;;;;;;16.38;7.20;;;;;;;1.19;60.25;100284.16;5269539;28;20570;-71
2023/01/29 04:52:48;;;;;;;12.50;6.18;;;;;;;1.22;60.13;100284.06;5284695;28;20058;-71
2023/01/29 04:55:44;;;;;;;10.82;6.10;;;;;;;1.14;61.00;100283.47;5258324;28;20059;-71
2023/01/29 04:58:46;;;;;;;13.50;7.20;;;;;;;1.20;60.34;100288.50;5269271;28;20063;-72
2023/01/29 05:01:37;;;;;;;11.90;7.03;;;;;;;1.33;60.38;100281.94;5262120;28;20670;-71
2023/01/29 05:04:32;;;;;;;14.40;6.45;;;;;;;1.41;60.07;100272.06;5264437;28;20552;-71
2023/01/29 05:07:24;;;;;;;13.30;6.95;;;;;;;1.22;60.37;100263.16;5263625;28;20063;-72
2023/01/29 05:10:18;;;;;;;16.65;7.40;;;;;;;1.37;60.36;100272.22;5263452;28;20082;-72
2023/01/29 05:13:13;;;;;;;12.00;6.32;;;;;;;1.24;59.21;100266.56;5272066;28;20125;-72
2023/01/29 05:16:18;;;;;;;10.85;6.40;;;;;;;1.12;59.49;100269.59;5285099;28;20062;-72
2023/01/29 05:19:10;;;;;;;13.50;6.00;;;;;;;1.28;60.15;100273.41;5269182;28;20059;-71
2023/01/29 05:22:04;;;;;;;14.88;6.68;;;;;;;1.43;60.24;100282.47;5269365;28;20627;-72
2023/01/29 05:24:54;;;;;;;12.88;7.15;;;;;;;0.98;60.43;100283.16;5285338;28;20098;-72
2023/01/29 05:28:03;;;;;;;12.52;6.65;;;;;;;0.91;60.93;100297.31;5274450;28;20532;-71
2023/01/29 05:30:55;;;;;;;10.63;6.15;;;;;;;1.09;60.62;100291.50;5242495;28;20055;-71
2023/01/29 05:33:45;;;;;;;15.02;7.55;;;;;;;1.26;60.14;100288.28;5244174;28;20056;-71
2023/01/29 05:36:35;;;;;;;12.13;7.03;;;;;;;1.16;60.33;100284.28;5270364;28;20063;-71
2023/01/29 05:39:25;;;;;;;14.93;6.78;;;;;;;1.31;59.98;100278.50;5263561;28;20051;-71
2023/01/29 05:42:15;;;;;;;14.77;6.57;;;;;;;1.22;60.38;100262.31;5256265;28;20055;-71
2023/01/29 05:45:06;;;;;;;12.13;6.68;;;;;;;1.20;60.23;100246.69;5243415;28;20597;-71
2023/01/29 05:47:57;;;;;;;13.35;6.93;;;;;;;1.22;60.02;100238.78;5241779;28;20127;-72
2023/01/29 05:50:47;;;;;;;13.55;6.32;;;;;;;1.23;59.23;100224.84;5243388;28;20060;-72
2023/01/29 05:53:37;;;;;;;12.65;6.68;;;;;;;1.15;60.42;100228.56;5247100;28;20056;-72
2023/01/29 05:56:28;;;;;;;14.73;6.95;;;;;;;1.05;60.15;100234.16;5273053;28;20063;-72
2023/01/29 05:59:19;;;;;;;14.43;6.28;;;;;;;1.08;60.08;100234.91;5272097;28;20493;-72
2023/01/29 06:02:09;;;;;;;10.98;6.72;;;;;;;1.16;59.65;100250.34;5287903;28;20074;-72
2023/01/29 06:04:59;;;;;;;11.52;6.80;;;;;;;1.20;59.95;100251.91;5272923;28;20129;-72
2023/01/29 06:07:49;;;;;;;13.52;7.10;;;;;;;1.03;59.72;100254.28;5263564;28;20174;-72
2023/01/29 06:10:39;;;;;;;11.68;6.53;;;;;;;1.08;60.25;100262.78;5273718;28;20059;-72
2023/01/29 06:13:29;;;;;;;12.27;6.72;;;;;;;0.85;59.90;100237.47;5275773;28;20055;-72
2023/01/29 06:16:20;;;;;;;11.65;6.38;;;;;;;1.07;59.91;100254.09;5288359;28;20646;-72
2023/01/29 06:19:10;;;;;;;12.48;6.63;;;;;;;1.19;60.14;100255.41;5272514;28;20040;-72
2023/01/29 06:22:00;;;;;;;13.63;7.43;;;;;;;1.18;60.04;100254.56;5272323;28;20519;-72
2023/01/29 06:24:50;;;;;;;18.52;6.68;;;;;;;1.03;60.74;100259.50;5285635;28;20055;-72
2023/01/29 06:27:40;;;;;;;13.23;7.22;;;;;;;1.12;59.88;100240.88;5271931;28;20047;-71
2023/01/29 06:30:31;;;;;;;13.15;7.15;;;;;;;1.00;60.38;100265.69;5288322;28;20157;-73
2023/01/29 06:33:21;;;;;;;14.25;7.30;;;;;;;0.91;60.24;100265.97;5238391;28;20198;-72
2023/01/29 06:36:11;;;;;;;13.18;6.47;;;;;;;1.00;59.82;100259.59;5266630;28;20063;-71
2023/01/29 06:39:01;;;;;;;13.85;7.00;;;;;;;1.02;60.52;100250.78;5236514;28;20190;-72
2023/01/29 06:41:51;;;;;;;13.27;7.35;;;;;;;1.09;59.89;100259.25;5257198;28;20054;-72
2023/01/29 06:44:41;;;;;;;17.42;7.38;;;;;;;1.17;59.83;100249.41;5266388;28;20074;-71
2023/01/29 06:47:31;;;;;;;13.18;7.32;;;;;;;1.01;59.77;100245.63;5251113;28;20052;-72
2023/01/29 06:50:22;;;;;;;16.67;7.63;;;;;;;1.13;60.46;100272.19;5266138;28;20107;-72
2023/01/29 06:53:12;;;;;;;11.57;7.18;;;;;;;1.03;59.88;100267.34;5250984;28;20493;-72
2023/01/29 06:56:03;;;;;;;15.25;7.28;;;;;;;1.04;59.91;100264.66;5255079;28;20100;-72
2023/01/29 06:58:53;;;;;;;14.95;7.65;;;;;;;0.98;60.03;100266.63;5273447;28;20046;-72
2023/01/29 07:01:43;;;;;;;14.10;7.65;;;;;;;0.85;60.46;100256.59;5285640;28;20058;-72
2023/01/29 07:04:35;;;;;;;15.10;7.43;;;;;;;0.94;60.82;100269.34;5271923;28;20055;-72
2023/01/29 07:07:25;;;;;;;12.20;7.05;;;;;;;0.77;59.93;100247.31;5287817;28;20153;-71
2023/01/29 07:10:15;;;;;;;12.15;7.45;;;;;;;1.03;59.99;100275.16;5265550;28;20127;-72
2023/01/29 07:13:06;;;;;;;14.45;7.47;;;;;;;0.99;60.11;100261.34;5269785;28;20493;-72
2023/01/29 07:16:00;;;;;;;15.35;6.75;;;;;;;1.05;60.73;100263.75;5245775;28;20059;-72
2023/01/29 07:18:50;;;;;;;15.90;8.10;;;;;;;1.01;60.18;100271.75;5244960;28;20056;-72
2023/01/29 07:21:41;;;;;;;16.58;8.00;;;;;;;1.10;59.91;100285.34;5255704;28;20049;-72
2023/01/29 07:24:31;;;;;;;15.43;8.23;;;;;;;0.80;60.16;100283.78;5245257;28;20048;-72
2023/01/29 07:27:21;;;;;;;14.70;7.80;;;;;;;1.09;60.72;100288.00;5264208;28;20429;-72
2023/01/29 07:30:12;;;;;;;12.35;7.00;;;;;;;1.26;60.54;100290.91;5265594;28;20445;-72
2023/01/29 07:33:05;;;;;;;14.90;7.53;;;;;;;1.22;60.98;100281.44;5265312;28;20123;-72
2023/01/29 07:35:56;;;;;;;13.88;7.90;;;;;;;1.38;60.29;100300.91;5250487;28;20063;-72
2023/01/29 07:38:50;;;;;;;19.17;7.22;;;;;;;1.18;59.95;100285.91;5236386;28;20291;-72
2023/01/29 07:41:40;;;;;;;14.85;7.57;;;;;;;1.29;60.14;100301.25;5271126;28;20056;-72
2023/01/29 07:44:38;;;;;;;17.67;7.65;;;;;;;1.08;59.62;100296.75;5245376;28;20075;-72
2023/01/29 07:47:28;;;;;;;17.58;7.55;;;;;;;0.80;59.45;100289.84;5265287;28;20197;-72
2023/01/29 07:50:18;;;;;;;18.90;8.23;;;;;;;1.29;59.84;100306.47;5264957;28;20089;-72
2023/01/29 07:53:13;;;;;;;18.67;9.18;;;;;;;1.40;59.55;100306.94;5265249;28;20059;-72
2023/01/29 07:56:04;;;;;;;22.15;10.80;;;;;;;1.33;59.63;100310.69;5237210;28;20071;-72
2023/01/29 07:58:55;;;;;;;16.38;7.95;;;;;;;1.16;59.49;100308.66;5262228;28;20051;-71
2023/01/29 08:01:45;;;;;;;14.32;7.90;;;;;;;1.50;59.21;100314.47;5258242;28;20189;-72
2023/01/29 08:04:35;;;;;;;16.48;7.93;;;;;;;1.37;60.09;100298.38;5270957;28;20520;-72
2023/01/29 08:07:25;;;;;;;14.05;7.20;;;;;;;1.49;60.36;100320.59;5253269;28;20044;-71
2023/01/29 08:10:15;;;;;;;16.75;8.02;;;;;;;1.44;59.65;100320.75;5268818;28;20049;-71
2023/01/29 08:13:07;;;;;;;16.42;7.55;;;;;;;1.41;59.21;100324.31;5269763;28;20540;-71
2023/01/29 08:16:03;;;;;;;15.75;7.95;;;;;;;1.65;59.22;100327.81;5251682;28;20055;-74
2023/01/29 08:18:54;;;;;;;16.35;7.63;;;;;;;1.58;59.17;100325.50;5264751;28;20040;-71
2023/01/29 08:21:44;;;;;;;13.65;8.07;;;;;;;1.17;60.04;100328.63;5270411;28;20047;-72
2023/01/29 08:24:34;;;;;;;15.20;7.72;;;;;;;1.22;60.00;100304.97;5239594;28;20463;-72
2023/01/29 08:27:44;;;;;;;15.23;7.20;;;;;;;1.51;59.72;100322.25;5263059;28;20044;-74
2023/01/29 08:30:35;;;;;;;13.52;7.20;;;;;;;1.57;58.49;100339.47;5228566;28;20118;-71
2023/01/29 08:33:27;;;;;;;17.00;7.95;;;;;;;1.59;58.64;100330.69;5244140;28;20059;-71
2023/01/29 08:36:28;;;;;;;14.02;7.80;;;;;;;1.28;59.56;100336.09;5259362;28;20074;-74
2023/01/29 08:39:18;;;;;;;13.27;7.93;;;;;;;1.66;59.86;100331.31;5265721;28;20075;-73
2023/01/29 08:42:09;;;;;;;19.63;7.93;;;;;;;1.68;59.37;100316.41;5228674;28;20059;-71
2023/01/29 08:44:59;;;;;;;18.75;7.80;;;;;;;1.44;59.13;100338.19;5254374;28;20055;-70
2023/01/29 08:47:49;;;;;;;18.70;8.88;;;;;;;1.56;58.76;100343.00;5253562;28;20054;-70
2023/01/29 08:50:39;;;;;;;16.80;8.23;;;;;;;1.79;58.81;100339.59;5251443;28;20052;-71
2023/01/29 08:53:30;;;;;;;18.35;8.52;;;;;;;1.55;59.71;100342.13;5248420;28;20056;-70
2023/01/29 08:56:20;;;;;;;20.80;9.20;;;;;;;1.80;59.04;100329.06;5234400;28;20142;-70
2023/01/29 08:59:11;;;;;;;15.52;7.85;;;;;;;1.58;58.71;100335.94;5244762;28;20181;-71
2023/01/29 09:02:01;;;;;;;15.63;8.77;;;;;;;1.56;58.57;100337.78;5249013;28;20055;-72
2023/01/29 09:04:51;;;;;;;17.02;8.45;;;;;;;1.45;59.51;100335.53;5246792;28;20083;-72
2023/01/29 09:07:41;;;;;;;38.05;17.30;;;;;;;1.64;59.36;100348.81;5242697;28;20051;-72
2023/01/29 09:10:31;;;;;;;19.30;8.38;;;;;;;1.83;59.70;100349.84;5242956;28;20054;-72
2023/01/29 09:13:21;;;;;;;18.52;9.15;;;;;;;1.86;58.55;100344.53;5275630;28;20054;-72
2023/01/29 09:16:12;;;;;;;18.23;9.10;;;;;;;2.17;58.64;100355.63;5285725;28;20066;-73
2023/01/29 09:19:02;;;;;;;14.80;8.48;;;;;;;2.24;58.15;100331.75;5254522;28;20455;-72
2023/01/29 09:21:53;;;;;;;18.00;9.02;;;;;;;2.51;57.50;100350.78;5266205;28;20047;-72
2023/01/29 09:24:43;;;;;;;16.70;8.00;;;;;;;2.11;57.79;100359.31;5254512;28;20059;-70
2023/01/29 09:27:33;;;;;;;16.40;7.97;;;;;;;2.39;56.88;100367.00;5268806;28;20051;-72
2023/01/29 09:30:23;;;;;;;32.53;12.73;;;;;;;2.35;56.68;100357.53;5231474;28;20439;-70
2023/01/29 09:33:13;;;;;;;46.08;16.17;;;;;;;2.32;57.08;100349.81;5249826;28;20187;-70
2023/01/29 09:36:03;;;;;;;24.02;10.60;;;;;;;2.71;56.77;100350.00;5282840;28;20329;-71
2023/01/29 09:38:53;;;;;;;20.10;9.52;;;;;;;2.78;57.46;100334.91;5266635;28;20426;-71
2023/01/29 09:42:13;;;;;;;30.05;12.75;;;;;;;2.69;56.08;100317.81;5272996;28;20468;-70
2023/01/29 09:45:23;;;;;;;18.33;9.38;;;;;;;2.85;56.24;100306.69;5219195;28;20139;-70
2023/01/29 09:48:14;;;;;;;16.17;8.50;;;;;;;3.12;55.71;100309.97;5245444;28;20178;-71
2023/01/29 09:51:29;;;;;;;15.77;8.93;;;;;;;3.28;53.79;100309.25;5254514;28;20048;-72
2023/01/29 09:54:28;;;;;;;861.00;308.67;;;;;;;3.35;56.02;100301.13;5284888;28;20144;-72
2023/01/29 09:57:26;;;;;;;86.85;29.98;;;;;;;3.95;52.70;100280.94;5278052;28;20051;-72
2023/01/29 10:00:25;;;;;;;68.80;27.17;;;;;;;3.98;53.66;100281.66;5287631;28;20585;-72
2023/01/29 10:03:23;;;;;;;23.95;11.50;;;;;;;4.02;53.92;100279.72;5272611;28;20063;-72
2023/01/29 10:06:31;;;;;;;15.43;8.30;;;;;;;4.12;51.51;100288.03;5288660;28;20056;-72
2023/01/29 10:09:53;;;;;;;15.20;8.63;;;;;;;4.06;52.70;100293.56;5276446;28;20520;-72
2023/01/29 10:13:16;;;;;;;18.05;8.75;;;;;;;4.24;53.49;100283.06;5228618;28;20502;-71
2023/01/29 10:16:15;;;;;;;16.00;8.32;;;;;;;4.16;52.03;100276.47;5215348;28;20060;-71
2023/01/29 10:19:30;;;;;;;16.67;8.95;;;;;;;4.47;50.33;100294.25;5229779;28;20064;-71
2023/01/29 10:22:51;;;;;;;18.50;7.97;;;;;;;4.37;51.27;100282.47;5245593;28;20052;-71
2023/01/29 10:25:45;;;;;;;17.08;8.82;;;;;;;3.95;51.36;100268.66;5267366;28;20052;-71
2023/01/29 10:28:45;;;;;;;14.18;7.93;;;;;;;4.01;50.36;100283.28;5267666;28;20063;-71
2023/01/29 10:31:38;;;;;;;21.00;12.48;;;;;;;4.10;50.87;100261.00;5250475;28;20583;-71
2023/01/29 10:34:44;;;;;;;14.02;8.50;;;;;;;3.84;52.25;100268.31;5266422;28;20067;-71
2023/01/29 10:37:42;;;;;;;15.50;8.25;;;;;;;3.42;53.77;100290.28;5265753;28;20055;-71
2023/01/29 10:41:03;;;;;;;14.82;8.10;;;;;;;3.94;50.93;100282.72;5269714;28;20421;-71
2023/01/29 10:44:13;;;;;;;11.85;7.57;;;;;;;3.59;51.15;100288.69;5278550;28;20433;-71
2023/01/29 10:47:10;;;;;;;12.88;8.02;;;;;;;4.05;51.69;100284.00;5286985;28;20052;-70
2023/01/29 10:50:16;;;;;;;17.10;8.77;;;;;;;4.04;52.68;100285.78;5286664;28;20039;-71
2023/01/29 10:53:31;;;;;;;13.45;8.02;;;;;;;3.86;52.23;100284.81;5285431;28;20107;-71
2023/01/29 10:56:39;;;;;;;15.63;8.07;;;;;;;3.44;52.05;100284.97;5276337;28;20144;-71
2023/01/29 10:59:49;;;;;;;15.52;8.13;;;;;;;3.55;52.72;100289.75;5270927;28;20177;-71
2023/01/29 11:02:45;;;;;;;14.98;8.02;;;;;;;4.00;52.64;100292.06;5265144;28;20526;-71
2023/01/29 11:05:43;;;;;;;15.25;8.70;;;;;;;3.49;52.63;100290.88;5265806;28;20064;-70
2023/01/29 11:08:40;;;;;;;15.43;8.02;;;;;;;3.84;52.34;100283.19;5264793;28;20153;-70
2023/01/29 11:11:38;;;;;;;13.05;8.05;;;;;;;3.85;52.31;100284.91;5261425;28;20052;-70
2023/01/29 11:14:52;;;;;;;13.70;8.57;;;;;;;3.44;54.27;100279.72;5261968;28;20280;-70
2023/01/29 11:18:09;;;;;;;14.63;8.07;;;;;;;3.95;53.37;100271.28;5254753;28;20042;-70
2023/01/29 11:21:02;;;;;;;14.23;7.97;;;;;;;3.68;51.33;100235.84;5255129;28;20048;-70
2023/01/29 11:24:17;;;;;;;16.67;9.53;;;;;;;3.79;52.50;100235.34;5254406;28;20075;-70
2023/01/29 11:27:38;;;;;;;16.35;8.55;;;;;;;3.97;52.15;100231.84;5273790;28;20513;-70
2023/01/29 11:30:36;;;;;;;17.65;8.80;;;;;;;3.87;53.55;100235.81;5247948;28;20101;-71
2023/01/29 11:33:27;;;;;;;15.98;9.48;;;;;;;4.02;53.10;100235.13;5244608;28;20218;-71
2023/01/29 11:36:29;;;;;;;15.45;9.60;;;;;;;4.05;51.94;100226.25;5257247;28;20055;-71
2023/01/29 11:39:22;;;;;;;16.50;9.10;;;;;;;4.28;52.47;100227.78;5239543;28;20055;-71
2023/01/29 11:42:20;;;;;;;14.75;9.18;;;;;;;4.23;51.34;100231.47;5265906;28;20633;-71
2023/01/29 11:45:20;;;;;;;16.08;9.10;;;;;;;4.34;53.28;100232.72;5272658;28;20058;-70
2023/01/29 11:48:16;;;;;;;15.63;8.65;;;;;;;4.48;49.49;100230.28;5239789;28;20055;-71
2023/01/29 11:51:09;;;;;;;15.40;9.40;;;;;;;4.20;52.14;100228.13;5251817;28;20562;-72
2023/01/29 11:54:04;;;;;;;22.08;10.15;;;;;;;4.05;51.22;100221.00;5250075;28;20048;-72
2023/01/29 11:56:54;;;;;;;17.23;9.05;;;;;;;3.35;52.87;100186.63;5271649;28;20496;-72
2023/01/29 11:59:49;;;;;;;18.48;9.38;;;;;;;4.12;53.19;100206.66;5272106;28;20055;-72
2023/01/29 12:02:46;;;;;;;16.60;9.88;;;;;;;4.10;52.93;100193.59;5285556;28;20433;-73
2023/01/29 12:05:37;;;;;;;17.30;9.23;;;;;;;3.89;53.52;100195.47;5286330;28;20225;-70
2023/01/29 12:08:35;;;;;;;21.00;9.63;;;;;;;4.17;52.14;100181.91;5279322;28;20083;-71
2023/01/29 12:11:33;;;;;;;19.30;10.07;;;;;;;3.95;52.90;100176.81;5269397;28;20510;-71
2023/01/29 12:14:28;;;;;;;18.02;9.75;;;;;;;3.88;52.65;100169.31;5249604;28;20154;-72
2023/01/29 12:17:24;;;;;;;19.83;10.93;;;;;;;4.20;52.75;100160.72;5266902;28;20054;-72
2023/01/29 12:20:20;;;;;;;16.15;9.38;;;;;;;3.40;54.42;100168.03;5258825;28;20051;-69
2023/01/29 12:23:20;;;;;;;17.02;9.63;;;;;;;4.09;52.27;100155.16;5283411;28;20444;-71
2023/01/29 12:26:33;;;;;;;21.70;10.10;;;;;;;4.40;51.86;100151.91;5257629;28;20070;-70
2023/01/29 12:29:36;;;;;;;17.55;10.43;;;;;;;4.21;52.15;100135.34;5284677;28;20126;-69
2023/01/29 12:32:47;;;;;;;22.57;10.27;;;;;;;3.96;53.85;100135.69;5251784;28;20128;-70
2023/01/29 12:35:46;;;;;;;17.92;10.02;;;;;;;4.37;52.57;100132.78;5275680;28;20580;-69
2023/01/29 12:38:37;;;;;;;15.52;9.75;;;;;;;4.16;52.86;100122.44;5283807;28;20100;-70
2023/01/29 12:41:46;;;;;;;16.92;9.73;;;;;;;4.34;51.58;100110.19;5273469;28;20520;-70
2023/01/29 12:44:49;;;;;;;21.90;11.13;;;;;;;4.07;52.13;100094.00;5258196;28;20059;-70
2023/01/29 12:47:45;;;;;;;21.63;11.73;;;;;;;4.32;53.55;100095.44;5269352;28;20074;-70
2023/01/29 12:50:37;;;;;;;20.35;11.10;;;;;;;4.47;52.43;100099.91;5275691;28;20043;-70
2023/01/29 12:53:33;;;;;;;18.65;10.77;;;;;;;4.71;51.09;100092.53;5283931;28;20189;-71
2023/01/29 12:56:46;;;;;;;19.58;11.30;;;;;;;4.66;51.76;100094.53;5263959;28;20051;-72
2023/01/29 12:59:48;;;;;;;19.33;10.95;;;;;;;4.71;51.95;100098.66;5271789;28;20043;-72
2023/01/29 13:02:59;;;;;;;18.60;10.95;;;;;;;4.51;51.31;100090.94;5289001;28;20066;-72
2023/01/29 13:06:01;;;;;;;23.98;11.80;;;;;;;4.36;53.08;100070.72;5289727;28;20098;-72
2023/01/29 13:08:57;;;;;;;18.20;10.57;;;;;;;4.71;52.98;100069.75;5273742;28;20070;-72
2023/01/29 13:12:06;;;;;;;20.63;10.77;;;;;;;4.52;52.69;100062.91;5261537;28;20324;-72
2023/01/29 13:15:05;;;;;;;19.13;11.15;;;;;;;4.77;52.58;100070.34;5281334;28;20180;-72
2023/01/29 13:18:14;;;;;;;18.63;11.00;;;;;;;4.64;52.07;100080.66;5288386;28;20055;-73
2023/01/29 13:21:05;;;;;;;21.23;11.13;;;;;;;4.39;51.97;100067.94;5272680;28;20063;-72
2023/01/29 13:23:58;;;;;;;24.17;10.48;;;;;;;4.65;52.70;100075.31;5254343;28;20130;-72
2023/01/29 13:26:49;;;;;;;19.40;10.48;;;;;;;3.83;52.33;100069.81;5255576;28;20052;-72
2023/01/29 13:29:42;;;;;;;16.67;10.02;;;;;;;4.19;53.54;100080.28;5282545;28;20055;-72
2023/01/29 13:32:34;;;;;;;17.60;10.23;;;;;;;3.94;53.04;100079.78;5269569;28;20521;-72
2023/01/29 13:35:24;;;;;;;18.42;10.32;;;;;;;3.61;53.58;100070.03;5277809;28;20051;-72
2023/01/29 13:38:32;;;;;;;20.05;10.57;;;;;;;3.19;54.64;100084.22;5256288;28;20051;-71
2023/01/29 13:41:31;;;;;;;20.58;10.05;;;;;;;3.26;55.45;100077.78;5268305;28;20171;-70
2023/01/29 13:44:49;;;;;;;17.58;9.63;;;;;;;3.25;54.67;100085.72;5276803;28;20041;-70
2023/01/29 13:47:39;;;;;;;19.50;9.50;;;;;;;3.25;54.54;100083.09;5247508;28;20055;-72
2023/01/29 13:50:37;;;;;;;16.58;9.60;;;;;;;3.17;55.25;100072.09;5275345;28;20056;-71
2023/01/29 13:53:36;;;;;;;18.30;10.50;;;;;;;4.11;52.47;100082.47;5266641;28;20071;-72
2023/01/29 13:56:27;;;;;;;17.80;9.85;;;;;;;3.27;53.87;100083.84;5272021;28;20056;-70
2023/01/29 13:59:40;;;;;;;20.15;9.93;;;;;;;3.47;53.75;100073.28;5266244;28;20522;-71
2023/01/29 14:02:31;;;;;;;23.73;9.57;;;;;;;4.05;54.09;100050.41;5266156;28;20125;-70